sensor_id;sensor_type;location;lat;lon;timestamp;P1;durP1;ratioP1;P2;durP2;ratioP2
20042;SDS011;10182;52.896;6.496;2022-11-04T00:01:44;15.67;;;13.53;;
20042;SDS011;10182;52.896;6.496;2022-11-04T00:06:47;14.07;;;12.80;;
20042;SDS011;10182;52.896;6.496;2022-11-04T00:11:49;12.20;;;11.00;;
20042;SDS011;10182;52.896;6.496;2022-11-04T00:17:10;8.77;;;7.83;;
20042;SDS011;10182;52.896;6.496;2022-11-04T00:22:25;5.77;;;5.17;;
20042;SDS011;10182;52.896;6.496;2022-11-04T00:27:45;4.37;;;3.97;;
20042;SDS011;10182;52.896;6.496;2022-11-04T00:33:06;3.80;;;2.93;;
20042;SDS011;10182;52.896;6.496;2022-11-04T00:38:26;2.97;;;2.67;;
20042;SDS011;10182;52.896;6.496;2022-11-04T00:43:27;4.70;;;3.00;;
20042;SDS011;10182;52.896;6.496;2022-11-04T00:48:30;2.17;;;1.93;;
20042;SDS011;10182;52.896;6.496;2022-11-04T00:53:32;2.00;;;1.40;;
20042;SDS011;10182;52.896;6.496;2022-11-04T00:58:33;3.27;;;1.10;;
20042;SDS011;10182;52.896;6.496;2022-11-04T01:03:36;1.00;;;0.80;;
20042;SDS011;10182;52.896;6.496;2022-11-04T01:08:38;1.93;;;0.63;;
20042;SDS011;10182;52.896;6.496;2022-11-04T01:13:40;1.33;;;0.47;;
20042;SDS011;10182;52.896;6.496;2022-11-04T01:18:43;4.70;;;1.00;;
20042;SDS011;10182;52.896;6.496;2022-11-04T01:23:45;1.33;;;0.50;;
20042;SDS011;10182;52.896;6.496;2022-11-04T01:28:48;2.53;;;0.70;;
20042;SDS011;10182;52.896;6.496;2022-11-04T01:33:53;1.60;;;1.03;;
20042;SDS011;10182;52.896;6.496;2022-11-04T01:38:55;3.17;;;0.90;;
20042;SDS011;10182;52.896;6.496;2022-11-04T01:43:58;2.63;;;0.60;;
20042;SDS011;10182;52.896;6.496;2022-11-04T01:49:03;4.47;;;0.97;;
20042;SDS011;10182;52.896;6.496;2022-11-04T01:54:16;1.10;;;0.80;;
20042;SDS011;10182;52.896;6.496;2022-11-04T01:59:19;3.13;;;0.93;;
20042;SDS011;10182;52.896;6.496;2022-11-04T02:04:26;3.63;;;0.70;;
20042;SDS011;10182;52.896;6.496;2022-11-04T02:09:29;0.50;;;0.37;;
20042;SDS011;10182;52.896;6.496;2022-11-04T02:14:33;2.37;;;0.40;;
20042;SDS011;10182;52.896;6.496;2022-11-04T02:19:43;1.37;;;0.40;;
20042;SDS011;10182;52.896;6.496;2022-11-04T02:25:02;1.93;;;0.50;;
20042;SDS011;10182;52.896;6.496;2022-11-04T02:30:18;1.40;;;0.40;;
20042;SDS011;10182;52.896;6.496;2022-11-04T02:35:22;1.53;;;0.40;;
20042;SDS011;10182;52.896;6.496;2022-11-04T02:40:32;2.73;;;0.53;;
20042;SDS011;10182;52.896;6.496;2022-11-04T02:45:45;2.13;;;0.50;;
20042;SDS011;10182;52.896;6.496;2022-11-04T02:50:50;3.77;;;0.50;;
20042;SDS011;10182;52.896;6.496;2022-11-04T02:55:58;1.73;;;0.70;;
20042;SDS011;10182;52.896;6.496;2022-11-04T03:01:04;3.70;;;1.00;;
20042;SDS011;10182;52.896;6.496;2022-11-04T03:06:09;1.77;;;0.93;;
20042;SDS011;10182;52.896;6.496;2022-11-04T03:11:16;2.73;;;1.20;;
20042;SDS011;10182;52.896;6.496;2022-11-04T03:16:23;2.40;;;1.20;;
20042;SDS011;10182;52.896;6.496;2022-11-04T03:21:31;2.40;;;1.20;;
20042;SDS011;10182;52.896;6.496;2022-11-04T03:26:38;3.47;;;1.40;;
20042;SDS011;10182;52.896;6.496;2022-11-04T03:31:46;3.43;;;2.00;;
20042;SDS011;10182;52.896;6.496;2022-11-04T03:36:52;5.17;;;1.20;;
20042;SDS011;10182;52.896;6.496;2022-11-04T03:41:54;2.20;;;0.67;;
20042;SDS011;10182;52.896;6.496;2022-11-04T03:46:59;1.60;;;0.60;;
20042;SDS011;10182;52.896;6.496;2022-11-04T03:52:01;1.33;;;0.43;;
20042;SDS011;10182;52.896;6.496;2022-11-04T03:57:15;1.53;;;0.40;;
20042;SDS011;10182;52.896;6.496;2022-11-04T04:02:33;1.33;;;0.57;;
20042;SDS011;10182;52.896;6.496;2022-11-04T04:07:42;0.63;;;0.50;;
20042;SDS011;10182;52.896;6.496;2022-11-04T04:12:48;1.27;;;0.50;;
20042;SDS011;10182;52.896;6.496;2022-11-04T04:17:54;2.73;;;0.70;;
20042;SDS011;10182;52.896;6.496;2022-11-04T04:23:00;1.40;;;0.50;;
20042;SDS011;10182;52.896;6.496;2022-11-04T04:28:27;0.53;;;0.40;;
20042;SDS011;10182;52.896;6.496;2022-11-04T04:33:30;2.47;;;0.50;;
20042;SDS011;10182;52.896;6.496;2022-11-04T04:38:32;3.73;;;0.80;;
20042;SDS011;10182;52.896;6.496;2022-11-04T04:43:53;3.63;;;1.10;;
20042;SDS011;10182;52.896;6.496;2022-11-04T04:49:13;1.97;;;0.67;;
20042;SDS011;10182;52.896;6.496;2022-11-04T04:54:15;0.60;;;0.60;;
20042;SDS011;10182;52.896;6.496;2022-11-04T04:59:17;2.50;;;0.87;;
20042;SDS011;10182;52.896;6.496;2022-11-04T05:04:20;3.70;;;1.00;;
20042;SDS011;10182;52.896;6.496;2022-11-04T05:09:22;2.83;;;1.00;;
20042;SDS011;10182;52.896;6.496;2022-11-04T05:14:23;1.47;;;1.00;;
20042;SDS011;10182;52.896;6.496;2022-11-04T05:19:27;0.70;;;0.70;;
20042;SDS011;10182;52.896;6.496;2022-11-04T05:24:28;1.80;;;0.60;;
20042;SDS011;10182;52.896;6.496;2022-11-04T05:29:30;1.80;;;0.60;;
20042;SDS011;10182;52.896;6.496;2022-11-04T05:34:33;2.80;;;0.93;;
20042;SDS011;10182;52.896;6.496;2022-11-04T05:39:35;1.03;;;0.40;;
20042;SDS011;10182;52.896;6.496;2022-11-04T05:44:36;1.73;;;0.77;;
20042;SDS011;10182;52.896;6.496;2022-11-04T05:49:39;2.00;;;0.70;;
20042;SDS011;10182;52.896;6.496;2022-11-04T05:54:41;2.20;;;0.80;;
20042;SDS011;10182;52.896;6.496;2022-11-04T05:59:43;2.20;;;0.60;;
20042;SDS011;10182;52.896;6.496;2022-11-04T06:04:45;1.80;;;0.80;;
20042;SDS011;10182;52.896;6.496;2022-11-04T06:09:47;3.83;;;0.80;;
20042;SDS011;10182;52.896;6.496;2022-11-04T06:14:49;2.30;;;0.87;;
20042;SDS011;10182;52.896;6.496;2022-11-04T06:19:52;3.53;;;1.00;;
20042;SDS011;10182;52.896;6.496;2022-11-04T06:24:53;2.00;;;1.17;;
20042;SDS011;10182;52.896;6.496;2022-11-04T06:29:55;1.57;;;0.80;;
20042;SDS011;10182;52.896;6.496;2022-11-04T06:34:58;1.90;;;1.00;;
20042;SDS011;10182;52.896;6.496;2022-11-04T06:40:00;2.97;;;0.70;;
20042;SDS011;10182;52.896;6.496;2022-11-04T06:45:02;1.23;;;0.80;;
20042;SDS011;10182;52.896;6.496;2022-11-04T06:50:06;3.07;;;1.00;;
20042;SDS011;10182;52.896;6.496;2022-11-04T06:55:08;1.43;;;0.97;;
20042;SDS011;10182;52.896;6.496;2022-11-04T07:00:11;2.13;;;1.60;;
20042;SDS011;10182;52.896;6.496;2022-11-04T07:05:14;0.90;;;0.87;;
20042;SDS011;10182;52.896;6.496;2022-11-04T07:10:16;2.33;;;0.70;;
20042;SDS011;10182;52.896;6.496;2022-11-04T07:15:18;4.60;;;1.97;;
20042;SDS011;10182;52.896;6.496;2022-11-04T07:20:21;1.90;;;1.10;;
20042;SDS011;10182;52.896;6.496;2022-11-04T07:25:23;1.53;;;1.10;;
20042;SDS011;10182;52.896;6.496;2022-11-04T07:30:24;2.63;;;1.50;;
20042;SDS011;10182;52.896;6.496;2022-11-04T07:35:28;0.97;;;0.90;;
20042;SDS011;10182;52.896;6.496;2022-11-04T07:40:29;3.63;;;1.50;;
20042;SDS011;10182;52.896;6.496;2022-11-04T07:45:33;3.53;;;1.53;;
20042;SDS011;10182;52.896;6.496;2022-11-04T07:50:38;3.70;;;1.40;;
20042;SDS011;10182;52.896;6.496;2022-11-04T07:55:40;4.87;;;1.90;;
20042;SDS011;10182;52.896;6.496;2022-11-04T08:00:44;2.07;;;1.50;;
20042;SDS011;10182;52.896;6.496;2022-11-04T08:05:47;2.07;;;1.27;;
20042;SDS011;10182;52.896;6.496;2022-11-04T08:10:56;2.90;;;1.70;;
20042;SDS011;10182;52.896;6.496;2022-11-04T08:16:00;1.93;;;1.50;;
20042;SDS011;10182;52.896;6.496;2022-11-04T08:21:04;4.97;;;1.83;;
20042;SDS011;10182;52.896;6.496;2022-11-04T08:26:06;2.93;;;1.57;;
20042;SDS011;10182;52.896;6.496;2022-11-04T08:31:09;2.00;;;1.70;;
20042;SDS011;10182;52.896;6.496;2022-11-04T08:36:16;1.50;;;1.37;;
20042;SDS011;10182;52.896;6.496;2022-11-04T08:41:21;4.00;;;1.50;;
20042;SDS011;10182;52.896;6.496;2022-11-04T08:46:24;2.97;;;1.90;;
20042;SDS011;10182;52.896;6.496;2022-11-04T08:51:28;4.40;;;1.50;;
20042;SDS011;10182;52.896;6.496;2022-11-04T08:56:31;2.00;;;1.30;;
20042;SDS011;10182;52.896;6.496;2022-11-04T09:01:35;2.63;;;1.50;;
20042;SDS011;10182;52.896;6.496;2022-11-04T09:06:39;6.40;;;1.50;;
20042;SDS011;10182;52.896;6.496;2022-11-04T09:11:43;4.60;;;2.17;;
20042;SDS011;10182;52.896;6.496;2022-11-04T09:16:46;3.47;;;1.93;;
20042;SDS011;10182;52.896;6.496;2022-11-04T09:21:49;4.03;;;2.00;;
20042;SDS011;10182;52.896;6.496;2022-11-04T09:26:51;6.10;;;3.93;;
20042;SDS011;10182;52.896;6.496;2022-11-04T09:31:52;6.83;;;4.63;;
20042;SDS011;10182;52.896;6.496;2022-11-04T09:36:56;10.00;;;6.93;;
20042;SDS011;10182;52.896;6.496;2022-11-04T09:42:12;10.77;;;7.73;;
20042;SDS011;10182;52.896;6.496;2022-11-04T09:47:30;8.93;;;7.80;;
20042;SDS011;10182;52.896;6.496;2022-11-04T09:52:36;9.47;;;8.23;;
20042;SDS011;10182;52.896;6.496;2022-11-04T09:57:42;12.77;;;8.50;;
20042;SDS011;10182;52.896;6.496;2022-11-04T10:02:50;9.73;;;6.93;;
20042;SDS011;10182;52.896;6.496;2022-11-04T10:08:06;7.93;;;7.13;;
20042;SDS011;10182;52.896;6.496;2022-11-04T10:13:23;12.40;;;8.70;;
20042;SDS011;10182;52.896;6.496;2022-11-04T10:18:39;12.03;;;8.03;;
20042;SDS011;10182;52.896;6.496;2022-11-04T10:23:54;11.00;;;8.63;;
20042;SDS011;10182;52.896;6.496;2022-11-04T10:29:10;9.43;;;7.90;;
20042;SDS011;10182;52.896;6.496;2022-11-04T10:34:20;12.17;;;10.20;;
20042;SDS011;10182;52.896;6.496;2022-11-04T10:39:29;12.30;;;10.43;;
20042;SDS011;10182;52.896;6.496;2022-11-04T10:44:34;10.80;;;8.13;;
20042;SDS011;10182;52.896;6.496;2022-11-04T10:49:42;9.87;;;7.87;;
20042;SDS011;10182;52.896;6.496;2022-11-04T10:54:56;7.50;;;6.70;;
20042;SDS011;10182;52.896;6.496;2022-11-04T10:59:58;10.30;;;7.10;;
20042;SDS011;10182;52.896;6.496;2022-11-04T11:05:11;10.63;;;7.10;;
20042;SDS011;10182;52.896;6.496;2022-11-04T11:10:17;9.13;;;7.30;;
20042;SDS011;10182;52.896;6.496;2022-11-04T11:15:26;11.67;;;7.33;;
20042;SDS011;10182;52.896;6.496;2022-11-04T11:20:31;11.17;;;6.67;;
20042;SDS011;10182;52.896;6.496;2022-11-04T11:25:38;8.77;;;6.30;;
20042;SDS011;10182;52.896;6.496;2022-11-04T11:30:53;7.80;;;6.60;;
20042;SDS011;10182;52.896;6.496;2022-11-04T11:35:57;9.00;;;6.20;;
20042;SDS011;10182;52.896;6.496;2022-11-04T11:41:04;6.80;;;4.57;;
20042;SDS011;10182;52.896;6.496;2022-11-04T11:46:07;6.27;;;4.53;;
20042;SDS011;10182;52.896;6.496;2022-11-04T11:51:10;5.37;;;4.87;;
20042;SDS011;10182;52.896;6.496;2022-11-04T11:56:17;9.13;;;4.27;;
20042;SDS011;10182;52.896;6.496;2022-11-04T12:01:27;7.40;;;4.60;;
20042;SDS011;10182;52.896;6.496;2022-11-04T12:06:36;4.93;;;1.00;;
20042;SDS011;10182;52.896;6.496;2022-11-04T12:11:54;4.37;;;1.10;;
20042;SDS011;10182;52.896;6.496;2022-11-04T12:17:11;6.00;;;1.20;;
20042;SDS011;10182;52.896;6.496;2022-11-04T12:22:28;3.90;;;0.93;;
20042;SDS011;10182;52.896;6.496;2022-11-04T12:27:42;3.67;;;0.90;;
20042;SDS011;10182;52.896;6.496;2022-11-04T12:32:56;1.40;;;0.73;;
20042;SDS011;10182;52.896;6.496;2022-11-04T12:38:19;1.03;;;0.83;;
20042;SDS011;10182;52.896;6.496;2022-11-04T12:43:39;3.10;;;1.30;;
20042;SDS011;10182;52.896;6.496;2022-11-04T12:48:52;4.13;;;1.20;;
20042;SDS011;10182;52.896;6.496;2022-11-04T12:54:25;6.00;;;2.30;;
20042;SDS011;10182;52.896;6.496;2022-11-04T12:59:45;6.30;;;3.10;;
20042;SDS011;10182;52.896;6.496;2022-11-04T13:05:04;5.80;;;3.00;;
20042;SDS011;10182;52.896;6.496;2022-11-04T13:10:15;14.33;;;4.57;;
20042;SDS011;10182;52.896;6.496;2022-11-04T13:15:22;6.30;;;1.87;;
20042;SDS011;10182;52.896;6.496;2022-11-04T13:20:28;6.43;;;1.83;;
20042;SDS011;10182;52.896;6.496;2022-11-04T13:25:36;2.70;;;1.40;;
20042;SDS011;10182;52.896;6.496;2022-11-04T13:30:44;3.27;;;1.27;;
20042;SDS011;10182;52.896;6.496;2022-11-04T13:35:53;4.53;;;1.27;;
20042;SDS011;10182;52.896;6.496;2022-11-04T13:46:33;5.97;;;2.63;;
20042;SDS011;10182;52.896;6.496;2022-11-04T13:51:39;5.80;;;1.83;;
20042;SDS011;10182;52.896;6.496;2022-11-04T13:56:43;5.03;;;2.27;;
20042;SDS011;10182;52.896;6.496;2022-11-04T14:01:46;5.83;;;2.00;;
20042;SDS011;10182;52.896;6.496;2022-11-04T14:06:50;6.80;;;1.90;;
20042;SDS011;10182;52.896;6.496;2022-11-04T14:23:04;4.50;;;2.40;;
20042;SDS011;10182;52.896;6.496;2022-11-04T14:28:17;5.13;;;2.30;;
20042;SDS011;10182;52.896;6.496;2022-11-04T14:33:34;3.77;;;1.90;;
20042;SDS011;10182;52.896;6.496;2022-11-04T14:38:39;8.20;;;3.10;;
20042;SDS011;10182;52.896;6.496;2022-11-04T14:43:42;5.20;;;2.03;;
20042;SDS011;10182;52.896;6.496;2022-11-04T14:48:48;9.00;;;2.27;;
20042;SDS011;10182;52.896;6.496;2022-11-04T14:53:53;6.40;;;1.87;;
20042;SDS011;10182;52.896;6.496;2022-11-04T14:59:01;3.50;;;1.97;;
20042;SDS011;10182;52.896;6.496;2022-11-04T15:04:07;7.03;;;2.83;;
20042;SDS011;10182;52.896;6.496;2022-11-04T15:09:19;7.83;;;3.00;;
20042;SDS011;10182;52.896;6.496;2022-11-04T15:14:23;7.03;;;2.70;;
20042;SDS011;10182;52.896;6.496;2022-11-04T15:19:28;6.73;;;3.10;;
20042;SDS011;10182;52.896;6.496;2022-11-04T15:24:31;11.33;;;3.93;;
20042;SDS011;10182;52.896;6.496;2022-11-04T15:29:35;9.90;;;5.17;;
20042;SDS011;10182;52.896;6.496;2022-11-04T15:34:38;4.93;;;3.07;;
20042;SDS011;10182;52.896;6.496;2022-11-04T15:39:41;10.33;;;3.53;;
20042;SDS011;10182;52.896;6.496;2022-11-04T15:44:45;8.40;;;3.37;;
20042;SDS011;10182;52.896;6.496;2022-11-04T15:49:51;8.43;;;3.13;;
20042;SDS011;10182;52.896;6.496;2022-11-04T15:54:54;12.97;;;7.33;;
20042;SDS011;10182;52.896;6.496;2022-11-04T15:59:58;8.93;;;2.63;;
20042;SDS011;10182;52.896;6.496;2022-11-04T16:05:06;10.17;;;3.70;;
20042;SDS011;10182;52.896;6.496;2022-11-04T16:10:22;6.37;;;3.73;;
20042;SDS011;10182;52.896;6.496;2022-11-04T16:15:29;15.60;;;5.40;;
20042;SDS011;10182;52.896;6.496;2022-11-04T16:20:33;15.10;;;8.10;;
20042;SDS011;10182;52.896;6.496;2022-11-04T16:25:35;9.73;;;4.97;;
20042;SDS011;10182;52.896;6.496;2022-11-04T16:30:37;7.93;;;4.30;;
20042;SDS011;10182;52.896;6.496;2022-11-04T16:35:40;14.77;;;6.17;;
20042;SDS011;10182;52.896;6.496;2022-11-04T16:40:42;24.13;;;12.57;;
20042;SDS011;10182;52.896;6.496;2022-11-04T16:45:47;20.97;;;11.50;;
20042;SDS011;10182;52.896;6.496;2022-11-04T16:50:51;15.37;;;7.10;;
20042;SDS011;10182;52.896;6.496;2022-11-04T16:55:53;12.07;;;6.93;;
20042;SDS011;10182;52.896;6.496;2022-11-04T17:00:57;32.27;;;16.40;;
20042;SDS011;10182;52.896;6.496;2022-11-04T17:06:00;25.03;;;11.57;;
20042;SDS011;10182;52.896;6.496;2022-11-04T17:11:01;17.00;;;6.50;;
20042;SDS011;10182;52.896;6.496;2022-11-04T17:16:03;10.73;;;5.97;;
20042;SDS011;10182;52.896;6.496;2022-11-04T17:21:10;12.03;;;4.73;;
20042;SDS011;10182;52.896;6.496;2022-11-04T17:26:16;14.63;;;7.67;;
20042;SDS011;10182;52.896;6.496;2022-11-04T17:31:18;16.77;;;9.10;;
20042;SDS011;10182;52.896;6.496;2022-11-04T17:36:21;17.93;;;8.60;;
20042;SDS011;10182;52.896;6.496;2022-11-04T17:41:23;14.67;;;10.57;;
20042;SDS011;10182;52.896;6.496;2022-11-04T17:46:42;13.13;;;7.27;;
20042;SDS011;10182;52.896;6.496;2022-11-04T17:51:48;13.63;;;6.30;;
20042;SDS011;10182;52.896;6.496;2022-11-04T17:56:52;8.23;;;4.70;;
20042;SDS011;10182;52.896;6.496;2022-11-04T18:01:54;9.93;;;4.43;;
20042;SDS011;10182;52.896;6.496;2022-11-04T18:06:57;9.07;;;4.57;;
20042;SDS011;10182;52.896;6.496;2022-11-04T18:11:59;14.93;;;4.87;;
20042;SDS011;10182;52.896;6.496;2022-11-04T18:17:18;9.03;;;5.63;;
20042;SDS011;10182;52.896;6.496;2022-11-04T18:22:25;14.67;;;8.23;;
20042;SDS011;10182;52.896;6.496;2022-11-04T18:27:27;20.23;;;15.60;;
20042;SDS011;10182;52.896;6.496;2022-11-04T18:32:29;19.27;;;11.37;;
20042;SDS011;10182;52.896;6.496;2022-11-04T18:37:32;18.33;;;13.73;;
20042;SDS011;10182;52.896;6.496;2022-11-04T18:42:34;15.37;;;11.43;;
20042;SDS011;10182;52.896;6.496;2022-11-04T18:47:35;16.57;;;10.13;;
20042;SDS011;10182;52.896;6.496;2022-11-04T18:52:38;15.40;;;8.83;;
20042;SDS011;10182;52.896;6.496;2022-11-04T18:57:40;13.00;;;8.70;;
20042;SDS011;10182;52.896;6.496;2022-11-04T19:02:42;19.83;;;11.23;;
20042;SDS011;10182;52.896;6.496;2022-11-04T19:07:45;21.83;;;11.17;;
20042;SDS011;10182;52.896;6.496;2022-11-04T19:12:47;12.50;;;8.87;;
20042;SDS011;10182;52.896;6.496;2022-11-04T19:18:06;16.80;;;9.10;;
20042;SDS011;10182;52.896;6.496;2022-11-04T19:23:09;21.13;;;14.47;;
20042;SDS011;10182;52.896;6.496;2022-11-04T19:28:11;16.37;;;7.00;;
20042;SDS011;10182;52.896;6.496;2022-11-04T19:33:13;10.50;;;5.40;;
20042;SDS011;10182;52.896;6.496;2022-11-04T19:38:16;8.83;;;4.70;;
20042;SDS011;10182;52.896;6.496;2022-11-04T19:43:19;11.30;;;3.60;;
20042;SDS011;10182;52.896;6.496;2022-11-04T19:48:21;8.13;;;3.40;;
20042;SDS011;10182;52.896;6.496;2022-11-04T19:53:24;10.67;;;3.50;;
20042;SDS011;10182;52.896;6.496;2022-11-04T19:58:25;14.03;;;3.37;;
20042;SDS011;10182;52.896;6.496;2022-11-04T20:03:27;12.80;;;4.07;;
20042;SDS011;10182;52.896;6.496;2022-11-04T20:08:30;10.47;;;3.70;;
20042;SDS011;10182;52.896;6.496;2022-11-04T20:13:32;15.43;;;5.00;;
20042;SDS011;10182;52.896;6.496;2022-11-04T20:18:47;15.57;;;5.50;;
20042;SDS011;10182;52.896;6.496;2022-11-04T20:23:54;10.07;;;7.07;;
20042;SDS011;10182;52.896;6.496;2022-11-04T20:28:57;30.23;;;15.63;;
20042;SDS011;10182;52.896;6.496;2022-11-04T20:34:00;35.40;;;18.23;;
20042;SDS011;10182;52.896;6.496;2022-11-04T20:39:07;30.60;;;17.80;;
20042;SDS011;10182;52.896;6.496;2022-11-04T20:44:11;21.27;;;8.73;;
20042;SDS011;10182;52.896;6.496;2022-11-04T20:49:13;15.07;;;9.90;;
20042;SDS011;10182;52.896;6.496;2022-11-04T20:54:16;27.40;;;18.37;;
20042;SDS011;10182;52.896;6.496;2022-11-04T20:59:18;33.07;;;20.30;;
20042;SDS011;10182;52.896;6.496;2022-11-04T21:04:19;19.57;;;16.47;;
20042;SDS011;10182;52.896;6.496;2022-11-04T21:09:23;24.47;;;14.80;;
20042;SDS011;10182;52.896;6.496;2022-11-04T21:14:24;21.13;;;11.73;;
20042;SDS011;10182;52.896;6.496;2022-11-04T21:19:26;12.27;;;10.73;;
20042;SDS011;10182;52.896;6.496;2022-11-04T21:24:29;17.63;;;13.07;;
20042;SDS011;10182;52.896;6.496;2022-11-04T21:29:31;15.17;;;8.30;;
20042;SDS011;10182;52.896;6.496;2022-11-04T21:34:33;15.97;;;7.57;;
20042;SDS011;10182;52.896;6.496;2022-11-04T21:39:36;20.53;;;14.40;;
20042;SDS011;10182;52.896;6.496;2022-11-04T21:44:38;15.43;;;11.57;;
20042;SDS011;10182;52.896;6.496;2022-11-04T21:49:39;12.77;;;6.80;;
20042;SDS011;10182;52.896;6.496;2022-11-04T21:54:42;14.80;;;8.30;;
20042;SDS011;10182;52.896;6.496;2022-11-04T21:59:44;15.80;;;8.20;;
20042;SDS011;10182;52.896;6.496;2022-11-04T22:04:46;13.20;;;8.60;;
20042;SDS011;10182;52.896;6.496;2022-11-04T22:09:49;15.70;;;7.83;;
20042;SDS011;10182;52.896;6.496;2022-11-04T22:14:50;11.93;;;7.43;;
20042;SDS011;10182;52.896;6.496;2022-11-04T22:19:52;24.73;;;8.60;;
20042;SDS011;10182;52.896;6.496;2022-11-04T22:24:55;12.83;;;7.63;;
20042;SDS011;10182;52.896;6.496;2022-11-04T22:30:02;11.73;;;7.77;;
20042;SDS011;10182;52.896;6.496;2022-11-04T22:35:04;12.03;;;7.20;;
20042;SDS011;10182;52.896;6.496;2022-11-04T22:40:09;13.70;;;6.80;;
20042;SDS011;10182;52.896;6.496;2022-11-04T22:45:11;12.03;;;7.43;;
20042;SDS011;10182;52.896;6.496;2022-11-04T22:50:13;15.83;;;7.60;;
20042;SDS011;10182;52.896;6.496;2022-11-04T22:55:16;17.20;;;7.70;;
20042;SDS011;10182;52.896;6.496;2022-11-04T23:00:17;15.87;;;8.10;;
20042;SDS011;10182;52.896;6.496;2022-11-04T23:05:19;13.97;;;7.53;;
20042;SDS011;10182;52.896;6.496;2022-11-04T23:10:22;17.30;;;8.17;;
20042;SDS011;10182;52.896;6.496;2022-11-04T23:15:41;10.57;;;7.80;;
20042;SDS011;10182;52.896;6.496;2022-11-04T23:21:01;13.23;;;8.10;;
20042;SDS011;10182;52.896;6.496;2022-11-04T23:26:21;16.10;;;9.17;;
20042;SDS011;10182;52.896;6.496;2022-11-04T23:31:23;14.77;;;8.53;;
20042;SDS011;10182;52.896;6.496;2022-11-04T23:36:25;18.50;;;8.03;;
20042;SDS011;10182;52.896;6.496;2022-11-04T23:41:45;11.90;;;7.43;;
20042;SDS011;10182;52.896;6.496;2022-11-04T23:47:04;16.80;;;7.60;;
20042;SDS011;10182;52.896;6.496;2022-11-04T23:52:23;14.20;;;7.20;;
20042;SDS011;10182;52.896;6.496;2022-11-04T23:57:44;13.97;;;7.43;;
